Time;durP1;ratioP1;P1;durP2;ratioP2;P2;SDS_P1;SDS_P2;PMS_P1;PMS_P2;Temp;Humidity;BMP_temperature;BMP_pressure;BME280_temperature;BME280_humidity;BME280_pressure;Samples;Min_cycle;Max_cycle;Signal;HPM_P1;HPM_P2
2022/09/10 00:01:37;;;;;;;6.28;1.77;;;26.50;99.90;;;;;;5009015;28;20057;-56
2022/09/10 00:04:13;;;;;;;9.38;1.40;;;26.50;99.90;;;;;;5010382;28;20030;-57
2022/09/10 00:06:39;;;;;;;7.38;1.48;;;26.50;99.90;;;;;;5011813;28;20382;-56
2022/09/10 00:09:06;;;;;;;4.55;1.48;;;26.50;99.90;;;;;;5011504;28;20022;-56
2022/09/10 00:11:34;;;;;;;6.25;1.33;;;26.40;99.90;;;;;;5011424;28;20057;-55
2022/09/10 00:14:02;;;;;;;9.68;1.77;;;26.40;99.90;;;;;;5011382;28;20096;-56
2022/09/10 00:16:29;;;;;;;5.32;1.52;;;26.40;99.90;;;;;;5011230;28;20037;-56
2022/09/10 00:18:58;;;;;;;3.17;1.67;;;26.40;99.90;;;;;;5011342;28;20050;-56
2022/09/10 00:21:25;;;;;;;7.65;1.55;;;26.40;99.90;;;;;;5011346;28;20033;-56
2022/09/10 00:23:50;;;;;;;5.95;1.75;;;26.50;99.90;;;;;;5011693;28;20030;-57
2022/09/10 00:26:22;;;;;;;6.13;2.05;;;26.50;99.90;;;;;;5011478;28;20081;-56
2022/09/10 00:28:50;;;;;;;3.25;1.35;;;26.50;99.90;;;;;;5011324;28;20033;-56
2022/09/10 00:31:16;;;;;;;;;;;26.50;99.90;;;;;;5011675;28;20049;-57
2022/09/10 00:33:42;;;;;;;7.28;1.98;;;26.50;99.90;;;;;;5011381;28;19948;-55
2022/09/10 00:36:21;;;;;;;7.72;1.55;;;26.50;99.90;;;;;;5011463;28;20418;-55
2022/09/10 00:38:49;;;;;;;5.53;1.48;;;26.50;99.90;;;;;;5011321;28;20026;-55
2022/09/10 00:41:15;;;;;;;;;;;26.50;99.90;;;;;;5011814;28;20026;-55
2022/09/10 00:43:56;;;;;;;4.10;1.70;;;26.40;99.90;;;;;;5011442;28;19951;-56
2022/09/10 00:46:25;;;;;;;7.75;1.60;;;26.50;99.90;;;;;;5011068;28;20030;-56
2022/09/10 00:48:55;;;;;;;5.82;1.77;;;26.50;99.90;;;;;;5011246;28;20021;-55
2022/09/10 00:51:21;;;;;;;7.47;2.00;;;26.50;99.90;;;;;;5010998;28;20018;-56
2022/09/10 00:53:48;;;;;;;6.15;2.53;;;26.50;99.90;;;;;;5010965;28;20501;-55
2022/09/10 00:56:14;;;;;;;8.75;2.05;;;26.50;99.90;;;;;;5011267;28;20033;-56
2022/09/10 00:58:42;;;;;;;3.85;2.10;;;26.50;99.90;;;;;;5010970;28;20034;-57
2022/09/10 01:01:07;;;;;;;4.47;1.63;;;26.50;99.90;;;;;;5011332;28;20045;-57
2022/09/10 01:03:33;;;;;;;5.30;1.98;;;26.50;99.90;;;;;;5011002;28;20193;-57
2022/09/10 01:05:59;;;;;;;7.07;1.95;;;26.50;99.90;;;;;;5010893;28;20018;-56
2022/09/10 01:08:26;;;;;;;4.97;2.08;;;26.50;99.90;;;;;;5014564;28;20084;-57
2022/09/10 01:11:08;;;;;;;4.72;1.70;;;26.50;99.90;;;;;;5014571;28;20030;-57
2022/09/10 01:13:39;;;;;;;4.40;1.77;;;26.50;99.90;;;;;;5014437;28;20041;-56
2022/09/10 01:16:21;;;;;;;3.35;1.67;;;26.50;99.90;;;;;;5014670;28;20041;-57
2022/09/10 01:19:13;;;;;;;6.65;1.85;;;26.50;99.90;;;;;;5014448;28;20041;-56
2022/09/10 01:21:45;;;;;;;8.43;2.22;;;26.50;99.90;;;;;;4998466;28;20180;-57
2022/09/10 01:24:49;;;;;;;6.43;1.65;;;26.50;99.90;;;;;;5014163;28;20030;-55
2022/09/10 01:27:34;;;;;;;5.50;1.70;;;26.50;99.90;;;;;;4998622;28;20034;-57
2022/09/10 01:30:02;;;;;;;6.88;1.88;;;26.50;99.90;;;;;;5014153;28;20062;-57
2022/09/10 01:32:49;;;;;;;7.20;1.70;;;26.50;99.90;;;;;;5014129;28;20092;-56
2022/09/10 01:35:19;;;;;;;4.20;1.70;;;26.50;99.90;;;;;;5014444;28;20030;-56
2022/09/10 01:37:50;;;;;;;8.20;1.77;;;26.50;99.90;;;;;;5014266;28;20029;-56
2022/09/10 01:40:17;;;;;;;5.10;1.77;;;26.50;99.90;;;;;;5014593;28;20029;-56
2022/09/10 01:42:44;;;;;;;8.77;1.80;;;26.50;99.90;;;;;;5014197;28;20542;-56
2022/09/10 01:45:13;;;;;;;9.97;2.97;;;26.50;99.90;;;;;;5014042;28;20385;-57
2022/09/10 01:48:06;;;;;;;7.75;1.67;;;26.50;99.90;;;;;;5013831;28;20036;-56
2022/09/10 01:50:51;;;;;;;7.07;1.83;;;26.50;99.90;;;;;;5013721;28;20032;-56
2022/09/10 01:53:41;;;;;;;4.88;1.33;;;26.50;99.90;;;;;;5013875;28;20113;-57
2022/09/10 01:56:35;;;;;;;6.13;1.80;;;26.50;99.90;;;;;;5013662;28;20096;-57
2022/09/10 01:59:33;;;;;;;5.00;1.67;;;26.50;99.90;;;;;;5014256;28;20030;-58
2022/09/10 02:02:27;;;;;;;7.18;1.40;;;26.60;99.90;;;;;;5013569;28;20038;-57
2022/09/10 02:04:54;;;;;;;3.22;1.17;;;26.60;99.90;;;;;;4992579;28;20434;-57
2022/09/10 02:07:22;;;;;;;5.68;1.10;;;26.60;99.90;;;;;;5013610;28;20375;-57
2022/09/10 02:09:50;;;;;;;6.50;1.40;;;26.60;99.90;;;;;;5013680;28;20030;-57
2022/09/10 02:12:18;;;;;;;9.05;1.77;;;26.60;99.90;;;;;;5013530;28;20033;-57
2022/09/10 02:14:54;;;;;;;6.05;1.60;;;26.60;99.90;;;;;;5013579;28;20060;-55
2022/09/10 02:17:23;;;;;;;3.65;1.40;;;26.60;99.90;;;;;;5013554;28;20381;-57
2022/09/10 02:19:51;;;;;;;6.82;1.75;;;26.70;99.90;;;;;;5012623;28;20022;-58
2022/09/10 02:22:18;;;;;;;7.53;1.98;;;26.70;99.90;;;;;;5013326;28;20038;-56
2022/09/10 02:24:44;;;;;;;4.63;2.33;;;26.70;99.90;;;;;;5013224;28;20363;-57
2022/09/10 02:27:13;;;;;;;4.53;1.58;;;26.70;99.90;;;;;;5013047;28;20025;-57
2022/09/10 02:29:40;;;;;;;7.95;2.00;;;26.70;99.90;;;;;;5013160;28;20029;-58
2022/09/10 02:32:07;;;;;;;8.18;1.73;;;26.70;99.90;;;;;;5012946;28;20516;-57
2022/09/10 02:34:34;;;;;;;5.50;1.70;;;26.70;99.90;;;;;;5013011;28;20069;-57
2022/09/10 02:37:01;;;;;;;5.43;1.65;;;26.70;99.90;;;;;;5013000;28;20110;-57
2022/09/10 02:39:27;;;;;;;6.70;1.70;;;26.70;99.90;;;;;;5012818;28;20033;-56
2022/09/10 02:41:52;;;;;;;4.10;1.85;;;26.70;99.90;;;;;;5012810;28;20068;-57
2022/09/10 02:44:18;;;;;;;5.47;1.83;;;26.70;99.90;;;;;;5013044;28;20101;-57
2022/09/10 02:46:44;;;;;;;2.10;1.38;;;26.70;99.90;;;;;;5012821;28;20118;-56
2022/09/10 02:49:10;;;;;;;4.43;1.80;;;26.70;99.90;;;;;;5012839;28;20050;-57
2022/09/10 02:51:36;;;;;;;5.00;1.30;;;26.70;99.90;;;;;;5012697;28;20105;-57
2022/09/10 02:54:02;;;;;;;5.22;1.90;;;26.70;99.90;;;;;;5012510;28;20569;-57
2022/09/10 02:56:28;;;;;;;5.03;1.52;;;26.70;99.90;;;;;;5012462;28;20054;-57
2022/09/10 02:58:53;;;;;;;5.78;1.23;;;26.70;99.90;;;;;;5012516;28;20056;-57
2022/09/10 03:01:21;;;;;;;6.72;1.90;;;26.70;99.90;;;;;;4990544;23;20494;-54
2022/09/10 03:03:54;;;;;;;3.95;1.92;;;26.80;99.90;;;;;;4973576;28;20119;-53
2022/09/10 03:06:22;;;;;;;6.68;1.80;;;26.70;99.90;;;;;;4973457;28;20069;-53
2022/09/10 03:08:48;;;;;;;7.13;1.95;;;26.70;99.90;;;;;;4973399;28;20105;-54
2022/09/10 03:11:21;;;;;;;9.63;1.88;;;26.70;99.90;;;;;;4973346;28;20062;-53
2022/09/10 03:13:47;;;;;;;5.13;1.38;;;26.60;99.90;;;;;;4973280;28;20042;-54
2022/09/10 03:16:13;;;;;;;5.53;2.13;;;26.60;99.90;;;;;;4973198;28;20108;-54
2022/09/10 03:18:40;;;;;;;9.77;2.00;;;26.60;99.90;;;;;;4973147;28;20386;-54
2022/09/10 03:21:20;;;;;;;8.27;1.73;;;26.60;99.90;;;;;;4973231;28;20289;-53
2022/09/10 03:23:48;;;;;;;9.00;2.22;;;26.50;99.90;;;;;;4973148;28;20023;-53
2022/09/10 03:26:17;;;;;;;5.40;1.85;;;26.40;99.90;;;;;;4973157;28;20328;-54
2022/09/10 03:28:43;;;;;;;5.60;2.13;;;26.30;99.90;;;;;;4972949;28;20027;-53
2022/09/10 03:31:10;;;;;;;5.30;2.53;;;26.10;99.90;;;;;;4972794;28;20025;-54
2022/09/10 03:33:36;;;;;;;9.37;2.80;;;26.00;99.90;;;;;;4972933;28;20042;-53
2022/09/10 03:36:05;;;;;;;11.30;3.03;;;25.80;99.90;;;;;;4972936;28;20109;-54
2022/09/10 03:38:31;;;;;;;9.63;3.47;;;25.70;99.90;;;;;;4972951;28;20174;-54
2022/09/10 03:40:57;;;;;;;15.82;3.58;;;25.60;99.90;;;;;;4972849;28;20530;-52
2022/09/10 03:43:23;;;;;;;11.57;3.90;;;25.50;99.90;;;;;;4973102;28;20098;-53
2022/09/10 03:45:50;;;;;;;10.18;4.20;;;25.40;99.90;;;;;;4972871;28;20109;-53
2022/09/10 03:48:17;;;;;;;12.95;5.13;;;25.40;99.90;;;;;;4972768;28;20023;-53
2022/09/10 03:50:44;;;;;;;13.50;5.20;;;25.30;99.90;;;;;;4972795;28;20158;-53
2022/09/10 03:53:14;;;;;;;11.15;5.40;;;25.20;99.90;;;;;;4972717;28;20296;-53
2022/09/10 03:55:43;;;;;;;12.80;5.93;;;25.10;99.90;;;;;;4972688;28;20034;-54
2022/09/10 03:58:09;;;;;;;11.10;5.78;;;25.10;99.90;;;;;;4972682;28;20034;-55
2022/09/10 04:00:35;;;;;;;10.90;5.47;;;25.00;99.90;;;;;;4985675;23;20046;-53
2022/09/10 04:03:01;;;;;;;12.77;6.40;;;25.00;99.90;;;;;;4972617;28;20039;-55
2022/09/10 04:05:27;;;;;;;14.48;7.65;;;25.00;99.90;;;;;;4972546;28;20023;-55
2022/09/10 04:07:54;;;;;;;14.15;6.55;;;25.00;99.90;;;;;;4972664;28;20506;-55
2022/09/10 04:10:23;;;;;;;16.58;6.70;;;24.90;99.90;;;;;;4972735;28;20063;-54
2022/09/10 04:12:48;;;;;;;14.93;7.18;;;24.90;99.90;;;;;;4972353;28;20121;-54
2022/09/10 04:15:14;;;;;;;17.85;7.85;;;24.90;99.90;;;;;;4972480;28;20122;-54
2022/09/10 04:17:40;;;;;;;17.83;8.90;;;24.90;99.90;;;;;;4972456;28;20029;-53
2022/09/10 04:20:07;;;;;;;11.57;7.20;;;24.90;99.90;;;;;;4972277;28;20114;-57
2022/09/10 04:22:33;;;;;;;17.17;7.43;;;24.90;99.90;;;;;;4972566;28;20027;-54
2022/09/10 04:24:59;;;;;;;19.77;8.02;;;24.90;99.90;;;;;;4972374;28;20037;-57
2022/09/10 04:27:29;;;;;;;16.05;7.10;;;24.90;99.90;;;;;;4972492;28;20031;-57
2022/09/10 04:29:54;;;;;;;13.43;7.18;;;24.90;99.90;;;;;;4972523;28;20099;-57
2022/09/10 04:32:20;;;;;;;16.33;7.15;;;24.90;99.90;;;;;;4972171;28;20043;-57
2022/09/10 04:34:46;;;;;;;16.90;5.80;;;24.90;99.90;;;;;;4972259;28;20035;-57
2022/09/10 04:37:11;;;;;;;15.90;6.22;;;24.90;99.90;;;;;;4972074;28;20023;-58
2022/09/10 04:39:37;;;;;;;15.43;5.40;;;24.90;99.90;;;;;;4972306;28;20066;-58
2022/09/10 04:42:05;;;;;;;11.15;5.63;;;24.90;99.90;;;;;;4973716;28;20070;-57
2022/09/10 04:44:31;;;;;;;12.05;5.03;;;24.90;99.90;;;;;;4975947;28;20077;-57
2022/09/10 04:46:57;;;;;;;9.73;3.35;;;24.90;99.90;;;;;;4976215;28;20031;-59
2022/09/10 04:49:23;;;;;;;10.68;3.45;;;24.90;99.90;;;;;;4976033;28;20030;-59
2022/09/10 04:51:49;;;;;;;15.30;3.47;;;25.00;99.90;;;;;;4975854;28;20501;-59
2022/09/10 04:54:15;;;;;;;8.85;2.95;;;25.10;99.90;;;;;;4975773;28;20082;-59
2022/09/10 04:56:41;;;;;;;21.42;3.72;;;25.30;99.90;;;;;;4975791;28;20019;-59
2022/09/10 04:59:09;;;;;;;15.77;4.10;;;25.40;99.90;;;;;;4974407;28;20023;-58
2022/09/10 05:01:35;;;;;;;;;;;25.60;99.90;;;;;;4975831;28;20046;-58
2022/09/10 05:04:01;;;;;;;6.50;2.17;;;25.70;99.90;;;;;;4975674;28;19905;-58
2022/09/10 05:06:27;;;;;;;12.43;2.50;;;25.90;99.90;;;;;;4975958;28;20098;-58
2022/09/10 05:08:53;;;;;;;11.48;2.63;;;26.00;99.90;;;;;;4975545;28;20035;-58
2022/09/10 05:11:19;;;;;;;6.10;2.50;;;26.20;99.90;;;;;;4975484;28;20058;-58
2022/09/10 05:13:45;;;;;;;6.82;2.55;;;26.30;99.90;;;;;;4975385;28;20073;-59
2022/09/10 05:16:11;;;;;;;6.63;1.85;;;26.40;99.90;;;;;;4975415;28;20034;-59
2022/09/10 05:18:38;;;;;;;8.05;3.03;;;26.50;99.90;;;;;;4975177;28;20035;-58
2022/09/10 05:21:06;;;;;;;6.18;2.50;;;26.60;99.90;;;;;;4975307;28;20029;-59
2022/09/10 05:23:32;;;;;;;6.32;2.45;;;26.60;99.90;;;;;;4975077;28;20122;-58
2022/09/10 05:25:58;;;;;;;6.45;2.15;;;26.70;99.90;;;;;;4975373;28;20097;-59
2022/09/10 05:28:24;;;;;;;5.97;1.95;;;26.80;99.90;;;;;;4975293;28;20108;-59
2022/09/10 05:30:50;;;;;;;6.80;2.10;;;26.90;99.90;;;;;;4975125;28;20486;-59
2022/09/10 05:33:16;;;;;;;7.30;2.45;;;26.90;99.90;;;;;;4975103;28;20110;-60
2022/09/10 05:35:42;;;;;;;4.63;1.80;;;27.00;99.90;;;;;;4975152;28;20387;-61
2022/09/10 05:38:10;;;;;;;8.07;2.20;;;27.00;99.90;;;;;;4975110;28;20105;-60
2022/09/10 05:40:36;;;;;;;6.78;2.20;;;27.10;99.90;;;;;;4974994;28;20030;-59
2022/09/10 05:43:02;;;;;;;5.55;2.08;;;27.10;99.90;;;;;;4975002;28;20109;-60
2022/09/10 05:45:28;;;;;;;6.57;1.83;;;27.20;99.90;;;;;;4975020;28;20146;-58
2022/09/10 05:47:55;;;;;;;6.38;2.35;;;27.20;99.90;;;;;;4974836;28;20471;-59
2022/09/10 05:50:20;;;;;;;7.55;2.67;;;27.30;99.90;;;;;;4974738;28;20057;-59
2022/09/10 05:52:46;;;;;;;5.88;2.03;;;27.30;99.90;;;;;;4974500;28;20483;-60
2022/09/10 05:55:12;;;;;;;6.95;2.00;;;27.30;99.90;;;;;;4974862;28;20023;-58
2022/09/10 05:57:39;;;;;;;6.22;2.60;;;27.40;99.90;;;;;;4974729;28;20030;-59
2022/09/10 06:00:08;;;;;;;2.53;1.80;;;27.40;99.90;;;;;;4974433;28;20466;-59
2022/09/10 06:02:34;;;;;;;6.22;2.47;;;27.40;99.90;;;;;;4974583;28;20625;-59
2022/09/10 06:05:00;;;;;;;5.82;2.00;;;27.50;99.90;;;;;;4974753;28;20073;-59
2022/09/10 06:07:27;;;;;;;7.80;2.05;;;27.50;99.90;;;;;;4974538;28;20054;-59
2022/09/10 06:09:53;;;;;;;5.05;1.70;;;27.50;99.90;;;;;;4974447;28;20031;-59
2022/09/10 06:12:19;;;;;;;4.43;1.83;;;27.50;99.90;;;;;;4974406;28;20065;-59
2022/09/10 06:14:45;;;;;;;4.97;1.92;;;27.60;99.90;;;;;;4974575;28;20062;-59
2022/09/10 06:17:11;;;;;;;2.95;1.50;;;27.60;99.90;;;;;;4974242;28;20023;-59
2022/09/10 06:19:38;;;;;;;5.60;1.90;;;27.60;99.90;;;;;;4974189;28;20085;-59
2022/09/10 06:22:05;;;;;;;4.55;1.98;;;27.60;99.90;;;;;;4974383;28;20415;-59
2022/09/10 06:24:30;;;;;;;4.95;1.95;;;27.60;99.90;;;;;;4974212;28;20487;-58
2022/09/10 06:26:56;;;;;;;6.47;1.75;;;27.60;99.90;;;;;;4974232;28;20118;-59
2022/09/10 06:29:22;;;;;;;5.18;2.00;;;27.60;99.90;;;;;;4974232;28;20026;-60
2022/09/10 06:31:48;;;;;;;5.85;1.67;;;27.70;99.90;;;;;;4974152;28;20495;-60
2022/09/10 06:34:17;;;;;;;4.57;1.95;;;27.70;99.90;;;;;;4973984;28;20093;-59
2022/09/10 06:36:45;;;;;;;5.43;2.00;;;27.70;99.90;;;;;;4973804;28;20022;-60
2022/09/10 06:39:11;;;;;;;3.22;1.52;;;27.70;99.90;;;;;;4973910;28;20146;-59
2022/09/10 06:41:37;;;;;;;4.00;1.73;;;27.70;99.90;;;;;;4973852;28;20483;-60
2022/09/10 06:44:02;;;;;;;4.13;1.80;;;27.70;99.90;;;;;;4973980;28;20371;-60
2022/09/10 06:46:29;;;;;;;5.03;1.65;;;27.70;99.90;;;;;;4974018;28;20106;-59
2022/09/10 06:48:59;;;;;;;3.45;2.00;;;27.80;99.90;;;;;;4972407;28;20158;-59
2022/09/10 06:51:25;;;;;;;7.38;2.60;;;27.80;99.90;;;;;;4973497;28;20039;-58
2022/09/10 06:53:51;;;;;;;6.15;2.00;;;27.80;99.90;;;;;;4973497;28;20034;-59
2022/09/10 06:56:17;;;;;;;3.60;1.88;;;27.80;99.90;;;;;;4973495;28;20390;-60
2022/09/10 06:58:43;;;;;;;6.93;2.53;;;27.80;99.90;;;;;;4973316;28;20085;-59
2022/09/10 07:01:10;;;;;;;5.47;2.65;;;27.80;99.90;;;;;;4973285;28;20046;-60
2022/09/10 07:03:36;;;;;;;;;;;27.90;99.90;;;;;;4972701;28;20065;-60
2022/09/10 07:06:08;;;;;;;3.78;1.77;;;27.90;99.90;;;;;;4972902;28;19949;-59
2022/09/10 07:08:34;;;;;;;6.00;2.33;;;27.90;99.90;;;;;;4973513;28;20038;-59
2022/09/10 07:11:03;;;;;;;3.72;1.75;;;27.90;99.90;;;;;;4973441;28;20066;-59
2022/09/10 07:13:33;;;;;;;9.13;2.40;;;27.90;99.90;;;;;;4973128;28;20039;-60
2022/09/10 07:15:59;;;;;;;6.18;2.08;;;28.00;99.90;;;;;;4972017;28;20497;-59
2022/09/10 07:18:26;;;;;;;3.40;2.17;;;28.00;99.90;;;;;;4973102;28;20030;-60
2022/09/10 07:20:52;;;;;;;6.47;2.10;;;28.00;99.90;;;;;;4973093;28;20030;-59
2022/09/10 07:23:20;;;;;;;3.38;1.33;;;28.00;99.90;;;;;;4972911;28;20090;-59
2022/09/10 07:25:46;;;;;;;4.50;1.75;;;28.00;99.90;;;;;;4973073;28;20019;-60
2022/09/10 07:28:17;;;;;;;3.72;2.30;;;28.00;99.90;;;;;;4971906;28;20031;-59
2022/09/10 07:30:44;;;;;;;6.10;2.95;;;28.00;99.90;;;;;;4972989;28;20069;-59
2022/09/10 07:33:10;;;;;;;6.25;2.00;;;28.00;99.90;;;;;;4972703;28;20050;-59
2022/09/10 07:35:37;;;;;;;6.78;1.73;;;28.00;99.90;;;;;;4973024;28;20035;-59
2022/09/10 07:38:04;;;;;;;5.90;1.70;;;28.00;99.90;;;;;;4973106;28;20031;-59
2022/09/10 07:40:31;;;;;;;6.45;2.25;;;28.00;99.90;;;;;;4972786;28;20157;-59
2022/09/10 07:42:58;;;;;;;3.85;2.15;;;28.00;99.90;;;;;;4972898;28;20030;-59
2022/09/10 07:45:24;;;;;;;6.10;2.05;;;28.10;99.90;;;;;;4972433;28;20122;-59
2022/09/10 07:47:51;;;;;;;3.42;1.95;;;28.10;99.90;;;;;;4972646;28;20118;-59
2022/09/10 07:50:18;;;;;;;3.00;1.80;;;28.10;99.90;;;;;;4971435;28;20031;-59
2022/09/10 07:52:44;;;;;;;9.07;2.60;;;28.10;99.90;;;;;;4972382;28;20062;-59
2022/09/10 07:55:10;;;;;;;3.25;1.98;;;28.10;99.90;;;;;;4972447;28;20034;-60
2022/09/10 07:57:36;;;;;;;7.68;2.30;;;28.10;99.90;;;;;;4972669;28;20023;-59
2022/09/10 08:00:13;;;;;;;8.00;1.80;;;28.10;99.90;;;;;;4972375;28;20054;-59
2022/09/10 08:02:41;;;;;;;4.38;2.38;;;28.10;99.90;;;;;;4972383;28;20062;-60
2022/09/10 08:05:09;;;;;;;6.28;1.77;;;28.10;99.90;;;;;;4972629;28;20034;-60
2022/09/10 08:07:35;;;;;;;;;;;28.10;99.90;;;;;;4972983;28;20486;-59
2022/09/10 08:10:01;;;;;;;8.38;2.85;;;28.10;99.90;;;;;;4972472;28;19906;-60
2022/09/10 08:12:27;;;;;;;4.70;2.00;;;28.10;99.90;;;;;;4972236;28;20356;-59
2022/09/10 08:14:53;;;;;;;6.32;1.90;;;28.20;99.90;;;;;;4972553;28;20084;-59
2022/09/10 08:17:19;;;;;;;8.45;3.22;;;28.20;99.90;;;;;;4974276;28;20077;-59
2022/09/10 08:19:45;;;;;;;4.63;2.03;;;28.20;99.90;;;;;;4976292;28;20031;-60
2022/09/10 08:22:11;;;;;;;4.53;1.60;;;28.20;99.90;;;;;;4976330;28;20019;-60
2022/09/10 08:24:36;;;;;;;4.82;2.08;;;28.20;99.90;;;;;;4976427;28;20031;-59
2022/09/10 08:27:02;;;;;;;3.42;1.58;;;28.20;99.90;;;;;;4976271;28;20029;-60
2022/09/10 08:29:28;;;;;;;3.15;2.13;;;28.20;99.90;;;;;;4976217;28;20309;-59
2022/09/10 08:31:54;;;;;;;4.93;1.80;;;28.30;99.90;;;;;;4976208;28;20504;-59
2022/09/10 08:34:21;;;;;;;7.07;3.42;;;28.30;99.90;;;;;;4975975;28;20439;-60
2022/09/10 08:36:47;;;;;;;6.40;2.47;;;28.30;99.90;;;;;;4975957;28;20019;-59
2022/09/10 08:39:13;;;;;;;6.68;2.13;;;28.40;99.90;;;;;;4975987;28;20038;-60
2022/09/10 08:41:51;;;;;;;4.97;2.05;;;28.30;99.90;;;;;;4976220;28;20026;-59
2022/09/10 08:44:39;;;;;;;5.70;2.17;;;28.30;99.90;;;;;;4975810;28;20082;-60
2022/09/10 08:47:16;;;;;;;4.88;2.22;;;28.40;99.90;;;;;;4975985;28;20031;-59
2022/09/10 08:49:51;;;;;;;3.47;1.67;;;28.40;99.90;;;;;;4975930;28;20034;-59
2022/09/10 08:52:23;;;;;;;7.72;2.28;;;28.40;99.90;;;;;;4975715;28;20043;-59
2022/09/10 08:55:14;;;;;;;6.10;2.05;;;28.40;99.90;;;;;;4975703;28;20043;-60
2022/09/10 08:57:46;;;;;;;7.03;2.20;;;28.40;99.90;;;;;;4975753;28;20027;-61
2022/09/10 09:00:23;;;;;;;4.97;2.08;;;28.40;99.90;;;;;;4975323;28;20060;-61
2022/09/10 09:02:58;;;;;;;4.50;1.88;;;28.50;99.90;;;;;;4975753;28;20031;-60
2022/09/10 09:05:25;;;;;;;6.93;1.88;;;28.50;99.90;;;;;;4975185;28;20050;-60
2022/09/10 09:07:51;;;;;;;5.82;1.60;;;28.50;99.90;;;;;;4975506;28;20058;-59
2022/09/10 09:10:23;;;;;;;5.63;2.10;;;28.50;99.90;;;;;;4975521;28;20023;-60
2022/09/10 09:13:27;;;;;;;5.32;2.08;;;28.60;99.90;;;;;;4975228;28;20498;-61
2022/09/10 09:16:17;;;;;;;5.07;1.92;;;28.60;99.90;;;;;;4975274;28;20062;-60
2022/09/10 09:18:57;;;;;;;4.38;2.10;;;28.60;99.90;;;;;;4975362;28;20050;-59
2022/09/10 09:22:03;;;;;;;8.73;2.40;;;28.60;99.90;;;;;;4975427;28;20093;-60
2022/09/10 09:24:57;;;;;;;5.55;1.83;;;28.60;99.90;;;;;;4970605;28;20030;-61
2022/09/10 09:27:35;;;;;;;7.75;1.95;;;28.70;99.90;;;;;;4974777;28;20034;-61
2022/09/10 09:30:00;;;;;;;7.18;1.67;;;28.70;99.90;;;;;;4975080;28;20010;-61
2022/09/10 09:32:31;;;;;;;5.72;1.45;;;28.70;99.90;;;;;;4975205;28;20034;-60
2022/09/10 09:35:01;;;;;;;8.27;2.05;;;28.70;99.90;;;;;;4975349;28;20037;-61
2022/09/10 09:37:30;;;;;;;3.47;1.70;;;28.70;99.90;;;;;;4974958;28;20026;-61
2022/09/10 09:40:05;;;;;;;5.10;1.70;;;28.80;99.90;;;;;;4975162;28;20110;-60
2022/09/10 09:43:11;;;;;;;6.97;2.35;;;28.80;99.90;;;;;;4975012;28;20026;-60
2022/09/10 09:45:42;;;;;;;3.75;1.80;;;28.90;99.90;;;;;;4974917;28;20031;-60
2022/09/10 09:48:13;;;;;;;5.60;2.63;;;28.90;99.90;;;;;;4975081;28;20035;-60
2022/09/10 09:50:41;;;;;;;11.55;3.75;;;28.80;99.90;;;;;;4975117;28;20023;-60
2022/09/10 09:53:14;;;;;;;5.30;2.63;;;28.90;99.90;;;;;;4974866;28;20035;-61
2022/09/10 09:55:46;;;;;;;3.08;1.90;;;28.90;99.90;;;;;;4975335;28;20066;-61
2022/09/10 09:58:25;;;;;;;8.30;2.97;;;28.90;99.90;;;;;;4974870;28;20078;-60
2022/09/10 10:01:05;;;;;;;4.75;2.42;;;28.90;99.90;;;;;;4974590;28;20054;-61
2022/09/10 10:03:34;;;;;;;7.50;2.53;;;29.00;99.90;;;;;;4974678;28;20125;-61
2022/09/10 10:06:08;;;;;;;7.38;3.05;;;29.00;99.90;;;;;;4973271;28;20116;-62
2022/09/10 10:08:41;;;;;;;6.45;2.78;;;29.00;99.90;;;;;;4973319;28;20557;-62
2022/09/10 10:11:08;;;;;;;5.80;2.75;;;29.10;99.90;;;;;;4974591;28;20497;-62
2022/09/10 10:13:39;;;;;;;6.60;2.90;;;29.10;99.90;;;;;;4973163;28;20394;-62
2022/09/10 10:16:22;;;;;;;5.93;2.85;;;29.10;99.90;;;;;;4973111;28;20026;-63
2022/09/10 10:18:49;;;;;;;6.57;2.70;;;29.10;99.90;;;;;;4973147;28;20048;-62
2022/09/10 10:21:18;;;;;;;5.82;3.20;;;29.10;99.90;;;;;;4974478;28;20111;-62
2022/09/10 10:23:46;;;;;;;5.78;2.75;;;29.20;99.90;;;;;;4973340;28;20082;-61
2022/09/10 10:26:23;;;;;;;5.50;2.95;;;29.20;99.90;;;;;;4973193;28;20030;-62
2022/09/10 10:28:58;;;;;;;14.88;2.80;;;29.20;99.90;;;;;;4974196;28;20490;-61
2022/09/10 10:31:37;;;;;;;7.40;2.97;;;29.20;99.90;;;;;;4974258;28;20037;-61
2022/09/10 10:34:18;;;;;;;3.58;2.20;;;29.30;99.90;;;;;;4974106;28;20141;-62
2022/09/10 10:37:07;;;;;;;4.95;2.70;;;29.30;99.90;;;;;;4972954;28;20490;-61
2022/09/10 10:39:59;;;;;;;8.00;2.40;;;29.30;99.90;;;;;;4973226;28;20285;-60
2022/09/10 10:42:59;;;;;;;6.38;2.60;;;29.40;99.90;;;;;;4974013;28;20041;-61
2022/09/10 10:45:29;;;;;;;4.72;2.78;;;29.40;99.90;;;;;;4972588;28;20039;-60
2022/09/10 10:48:33;;;;;;;6.40;2.85;;;29.40;99.90;;;;;;4972563;28;20019;-62
2022/09/10 10:51:17;;;;;;;5.03;2.92;;;29.50;99.90;;;;;;4974010;28;20027;-61
2022/09/10 10:54:04;;;;;;;9.15;2.90;;;29.50;99.90;;;;;;4972753;28;20035;-61
2022/09/10 10:56:36;;;;;;;4.15;2.78;;;29.50;99.90;;;;;;4972626;28;20030;-60
2022/09/10 10:59:14;;;;;;;11.98;3.08;;;29.50;99.90;;;;;;4973848;28;20038;-61
2022/09/10 11:01:47;;;;;;;7.03;3.05;;;29.60;99.90;;;;;;4973680;28;20042;-63
2022/09/10 11:04:27;;;;;;;5.50;2.90;;;29.60;99.90;;;;;;4973787;28;20567;-62
2022/09/10 11:07:29;;;;;;;4.95;2.45;;;29.60;99.90;;;;;;4973495;28;20058;-61
2022/09/10 11:10:05;;;;;;;5.10;2.85;;;29.60;99.90;;;;;;4972244;28;20035;-62
2022/09/10 11:12:33;;;;;;;5.95;2.78;;;29.70;99.90;;;;;;4972115;28;20321;-62
2022/09/10 11:15:33;;;;;;;4.57;2.67;;;29.70;99.90;;;;;;4973347;28;20510;-62
2022/09/10 11:18:21;;;;;;;4.47;2.45;;;29.70;99.90;;;;;;4972090;28;20113;-60
2022/09/10 11:20:53;;;;;;;5.43;2.20;;;29.70;99.90;;;;;;4973402;28;20026;-62
2022/09/10 11:23:44;;;;;;;5.80;2.53;;;29.80;99.90;;;;;;4972063;28;20053;-61
2022/09/10 11:26:33;;;;;;;6.82;2.38;;;29.80;99.90;;;;;;4973169;28;20058;-62
2022/09/10 11:29:24;;;;;;;5.30;2.30;;;29.90;99.90;;;;;;4971940;28;20062;-60
2022/09/10 11:32:05;;;;;;;4.72;1.83;;;29.80;99.90;;;;;;4972799;28;20077;-61
2022/09/10 11:34:34;;;;;;;7.03;2.22;;;29.90;99.90;;;;;;4972749;28;20027;-61
2022/09/10 11:37:39;;;;;;;5.35;1.70;;;30.00;99.90;;;;;;4972822;28;20022;-62
2022/09/10 11:40:18;;;;;;;5.25;2.17;;;29.90;99.90;;;;;;4953383;28;20078;-60
2022/09/10 11:42:51;;;;;;;3.08;1.67;;;30.00;99.90;;;;;;4972711;28;20027;-61
2022/09/10 11:45:38;;;;;;;9.10;1.85;;;30.00;99.90;;;;;;4972969;28;20026;-60
2022/09/10 11:48:37;;;;;;;4.72;1.95;;;30.00;99.90;;;;;;4972317;28;20490;-60
2022/09/10 11:51:22;;;;;;;6.57;1.95;;;30.10;99.90;;;;;;4968301;28;20039;-59
2022/09/10 11:53:48;;;;;;;6.95;1.95;;;30.10;99.90;;;;;;4972487;28;20043;-60
2022/09/10 11:56:42;;;;;;;5.32;1.60;;;30.20;99.90;;;;;;4972654;28;20475;-61
2022/09/10 11:59:41;;;;;;;4.05;1.35;;;30.20;99.90;;;;;;4972386;28;20394;-60
2022/09/10 12:02:38;;;;;;;6.13;1.52;;;30.20;99.90;;;;;;4972379;28;20066;-59
2022/09/10 12:05:17;;;;;;;4.07;1.52;;;30.20;99.90;;;;;;4971007;28;20030;-60
2022/09/10 12:08:16;;;;;;;3.38;1.23;;;30.30;99.90;;;;;;4972410;28;20094;-61
2022/09/10 12:11:19;;;;;;;2.22;1.40;;;30.30;99.90;;;;;;4972391;28;20023;-61
2022/09/10 12:13:48;;;;;;;3.03;1.13;;;30.30;99.90;;;;;;4972324;28;20401;-60
2022/09/10 12:16:20;;;;;;;4.20;1.13;;;30.30;99.90;;;;;;4972243;28;20047;-61
2022/09/10 12:18:50;;;;;;;3.88;1.23;;;30.40;99.90;;;;;;4971058;28;20117;-59
2022/09/10 12:21:28;;;;;;;5.80;1.63;;;30.50;99.90;;;;;;4964970;28;20426;-59
2022/09/10 12:23:55;;;;;;;3.28;1.13;;;30.60;99.90;;;;;;4952968;28;20122;-60
2022/09/10 12:26:21;;;;;;;;;;;30.70;99.90;;;;;;4953743;28;20019;-59
2022/09/10 12:28:48;;;;;;;9.57;3.60;;;30.90;99.90;;;;;;4963487;28;19907;-59
2022/09/10 12:31:16;;;;;;;4.40;1.60;;;31.00;99.90;;;;;;4952924;28;20664;-60
2022/09/10 12:34:01;;;;;;;2.90;1.30;;;31.10;99.90;;;;;;4955421;28;20382;-58
2022/09/10 12:36:27;;;;;;;9.68;1.35;;;31.20;99.90;;;;;;4963398;28;20467;-60
2022/09/10 12:39:22;;;;;;;5.57;1.58;;;31.30;99.90;;;;;;4971142;28;20034;-59
2022/09/10 12:41:51;;;;;;;5.13;1.63;;;31.40;99.90;;;;;;4951767;28;20043;-60
2022/09/10 12:44:33;;;;;;;3.90;2.05;;;31.50;99.90;;;;;;4968996;28;20454;-58
2022/09/10 12:47:14;;;;;;;7.00;2.40;;;31.60;99.90;;;;;;4960084;28;20488;-56
2022/09/10 12:49:53;;;;;;;4.93;2.17;;;31.70;99.90;;;;;;4955284;28;20026;-57
2022/09/10 12:52:43;;;;;;;5.20;1.70;;;31.70;99.90;;;;;;4957829;28;20037;-58
2022/09/10 12:55:22;;;;;;;7.05;1.92;;;31.80;99.90;;;;;;4971464;28;20475;-57
2022/09/10 12:57:54;;;;;;;4.60;2.13;;;31.80;99.90;;;;;;4959835;28;20110;-57
2022/09/10 13:00:22;;;;;;;8.85;2.80;;;31.90;99.90;;;;;;4962824;28;20062;-62
2022/09/10 13:03:15;;;;;;;5.28;2.22;;;31.90;99.90;;;;;;4971510;28;20114;-59
2022/09/10 13:05:45;;;;;;;8.50;2.60;;;31.80;99.90;;;;;;4975453;28;20037;-64
2022/09/10 13:08:26;;;;;;;3.15;1.95;;;31.90;99.90;;;;;;4974870;28;20026;-54
2022/09/10 13:10:57;;;;;;;10.32;4.57;;;31.80;99.90;;;;;;4975354;28;20034;-56
2022/09/10 13:13:41;;;;;;;6.38;3.17;;;31.80;99.90;;;;;;4959959;28;20034;-53